createdAt,value
2023-04-18T00:00:44.775Z,36.86
2023-04-18T00:01:46.622Z,36.82
2023-04-18T00:02:48.589Z,36.84
2023-04-18T00:03:50.740Z,36.85
2023-04-18T00:04:52.835Z,36.87
2023-04-18T00:05:54.696Z,36.88
2023-04-18T00:06:56.500Z,36.88
2023-04-18T00:07:58.285Z,36.86
2023-04-18T00:09:00.168Z,36.88
2023-04-18T00:10:01.945Z,36.94
2023-04-18T00:11:03.768Z,36.93
2023-04-18T00:12:05.477Z,36.92
2023-04-18T00:13:07.263Z,36.91
2023-04-18T00:14:09.054Z,36.93
2023-04-18T00:15:10.896Z,36.94
2023-04-18T00:16:13.831Z,36.86
2023-04-18T00:17:15.692Z,36.90
2023-04-18T00:18:17.484Z,36.88
2023-04-18T00:19:19.285Z,36.87
2023-04-18T00:20:21.160Z,36.88
2023-04-18T00:21:22.991Z,36.93
2023-04-18T00:22:43.089Z,37.00
2023-04-18T00:23:44.911Z,37.00
2023-04-18T00:24:46.711Z,37.04
2023-04-18T00:25:48.499Z,37.12
2023-04-18T00:26:50.307Z,37.22
2023-04-18T00:27:52.014Z,37.27
2023-04-18T00:28:53.812Z,37.41
2023-04-18T00:29:55.593Z,37.46
2023-04-18T00:30:57.539Z,37.51
2023-04-18T00:31:59.334Z,37.58
2023-04-18T00:33:01.171Z,37.59
2023-04-18T00:34:02.933Z,37.61
2023-04-18T00:35:04.716Z,37.62
2023-04-18T00:36:06.644Z,37.67
2023-04-18T00:37:08.467Z,37.70
2023-04-18T00:38:10.265Z,37.73
2023-04-18T00:39:12.057Z,37.76
2023-04-18T00:40:13.854Z,37.76
2023-04-18T00:41:15.662Z,37.81
2023-04-18T00:42:17.511Z,37.85
2023-04-18T00:43:19.298Z,37.90
2023-04-18T00:44:21.156Z,37.94
2023-04-18T00:45:22.945Z,37.98
2023-04-18T00:46:24.768Z,38.00
2023-04-18T00:47:26.788Z,38.00
2023-04-18T00:48:28.573Z,37.98
2023-04-18T00:49:30.369Z,38.05
2023-04-18T00:50:32.172Z,38.07
2023-04-18T00:51:33.994Z,38.03
2023-04-18T00:52:35.812Z,38.00
2023-04-18T00:53:37.609Z,38.00
2023-04-18T00:54:39.509Z,37.96
2023-04-18T00:55:41.310Z,37.94
2023-04-18T00:56:43.124Z,37.97
2023-04-18T00:57:44.948Z,38.03
2023-04-18T00:58:46.848Z,38.10
2023-04-18T00:59:48.655Z,38.11
2023-04-18T01:00:50.455Z,38.07
2023-04-18T01:01:52.366Z,38.04
2023-04-18T01:02:54.412Z,38.04
2023-04-18T01:03:56.482Z,38.03
2023-04-18T01:04:58.306Z,38.09
2023-04-18T01:06:00.126Z,38.18
2023-04-18T01:07:01.907Z,38.16
2023-04-18T01:08:03.757Z,38.21
2023-04-18T01:09:05.459Z,38.24
2023-04-18T01:10:07.755Z,38.27
2023-04-18T01:11:09.693Z,38.29
2023-04-18T01:12:11.490Z,38.31
2023-04-18T01:13:13.315Z,38.33
2023-04-18T01:14:15.302Z,38.37
2023-04-18T01:15:17.214Z,38.43
2023-04-18T01:16:19.234Z,38.45
2023-04-18T01:17:21.105Z,38.41
2023-04-18T01:18:22.926Z,38.38
2023-04-18T01:19:24.726Z,38.38
2023-04-18T01:20:26.510Z,38.39
2023-04-18T01:21:28.323Z,38.39
2023-04-18T01:22:30.152Z,38.40
2023-04-18T01:23:31.969Z,38.43
2023-04-18T01:24:33.770Z,38.48
2023-04-18T01:25:35.567Z,38.49
2023-04-18T01:26:37.359Z,38.45
2023-04-18T01:27:39.289Z,38.45
2023-04-18T01:28:41.120Z,38.43
2023-04-18T01:29:42.912Z,38.53
2023-04-18T01:30:44.712Z,38.56
2023-04-18T01:31:46.557Z,38.55
2023-04-18T01:32:48.363Z,38.55
2023-04-18T01:33:50.144Z,38.51
2023-04-18T01:34:51.963Z,38.52
2023-04-18T01:35:53.752Z,38.56
2023-04-18T01:36:55.551Z,38.59
2023-04-18T01:37:57.358Z,38.52
2023-04-18T01:38:59.186Z,38.58
2023-04-18T01:40:00.985Z,38.55
2023-04-18T01:41:02.785Z,38.59
2023-04-18T01:42:04.588Z,38.61
2023-04-18T01:43:06.517Z,38.67
2023-04-18T01:44:08.336Z,38.62
2023-04-18T01:45:10.121Z,38.59
2023-04-18T01:46:13.510Z,38.62
2023-04-18T01:47:15.336Z,38.63
2023-04-18T01:48:17.136Z,38.61
2023-04-18T01:49:18.984Z,38.55
2023-04-18T01:50:20.788Z,38.59
2023-04-18T01:51:22.468Z,38.59
2023-04-18T01:52:24.335Z,38.53
2023-04-18T01:53:26.059Z,38.52
2023-04-18T01:54:27.920Z,38.54
2023-04-18T01:55:29.737Z,38.53
2023-04-18T01:56:31.539Z,38.54
2023-04-18T01:57:33.328Z,38.53
2023-04-18T01:58:35.142Z,38.53
2023-04-18T01:59:36.977Z,38.58
2023-04-18T02:00:38.804Z,38.56
2023-04-18T02:01:40.587Z,38.61
2023-04-18T02:02:42.464Z,38.62
2023-04-18T02:03:44.651Z,38.57
2023-04-18T02:04:46.614Z,38.52
2023-04-18T02:05:48.419Z,38.49
2023-04-18T02:06:50.236Z,38.44
2023-04-18T02:07:52.045Z,38.49
2023-04-18T02:08:53.823Z,38.51
2023-04-18T02:09:55.667Z,38.54
2023-04-18T02:10:57.472Z,38.49
2023-04-18T02:11:59.280Z,38.48
2023-04-18T02:13:01.056Z,38.50
2023-04-18T02:14:02.874Z,38.46
2023-04-18T02:15:04.685Z,38.44
2023-04-18T02:16:06.618Z,38.44
2023-04-18T02:17:08.402Z,38.45
2023-04-18T02:18:10.188Z,38.49
2023-04-18T02:19:11.995Z,38.55
2023-04-18T02:20:13.910Z,38.53
2023-04-18T02:21:15.704Z,38.54
2023-04-18T02:22:17.506Z,38.51
2023-04-18T02:23:19.302Z,38.54
2023-04-18T02:24:21.115Z,38.62
2023-04-18T02:25:22.948Z,38.68
2023-04-18T02:26:24.755Z,38.70
2023-04-18T02:27:26.570Z,38.71
2023-04-18T02:28:28.344Z,38.70
2023-04-18T02:29:30.146Z,38.69
2023-04-18T02:30:31.993Z,38.70
2023-04-18T02:31:33.867Z,38.67
2023-04-18T02:32:35.752Z,38.63
2023-04-18T02:33:37.598Z,38.68
2023-04-18T02:34:39.323Z,38.67
2023-04-18T02:35:41.138Z,38.69
2023-04-18T02:36:42.939Z,38.69
2023-04-18T02:37:44.738Z,38.73
2023-04-18T02:38:46.526Z,38.71
2023-04-18T02:39:48.328Z,38.68
2023-04-18T02:40:50.282Z,38.67
2023-04-18T02:41:52.067Z,38.69
2023-04-18T02:42:53.884Z,38.73
2023-04-18T02:43:55.700Z,38.73
2023-04-18T02:44:57.500Z,38.71
2023-04-18T02:45:59.409Z,38.76
2023-04-18T02:47:01.297Z,38.79
2023-04-18T02:48:03.109Z,38.84
2023-04-18T02:49:04.914Z,38.85
2023-04-18T02:50:07.016Z,38.84
2023-04-18T02:51:08.847Z,38.86
2023-04-18T02:52:10.662Z,38.85
2023-04-18T02:53:12.480Z,38.89
2023-04-18T02:54:14.555Z,38.87
2023-04-18T02:55:16.580Z,38.87
2023-04-18T02:56:18.410Z,38.88
2023-04-18T02:57:20.201Z,38.92
2023-04-18T02:58:21.994Z,38.94
2023-04-18T02:59:23.805Z,39.00
2023-04-18T03:00:25.625Z,38.98
2023-04-18T03:01:27.508Z,39.02
2023-04-18T03:02:29.452Z,39.10
2023-04-18T03:03:31.382Z,39.12
2023-04-18T03:04:33.183Z,39.17
2023-04-18T03:05:34.930Z,39.12
2023-04-18T03:06:36.756Z,39.14
2023-04-18T03:07:38.561Z,39.16
2023-04-18T03:08:40.348Z,39.15
2023-04-18T03:09:42.160Z,39.23
2023-04-18T03:10:43.936Z,39.21
2023-04-18T03:11:45.778Z,39.29
2023-04-18T03:12:47.556Z,39.27
2023-04-18T03:13:49.375Z,39.33
2023-04-18T03:14:51.221Z,39.33
2023-04-18T03:15:53.100Z,39.36
2023-04-18T03:16:55.703Z,39.39
2023-04-18T03:17:57.583Z,39.41
2023-04-18T03:18:59.429Z,39.41
2023-04-18T03:20:01.218Z,39.46
2023-04-18T03:21:03.013Z,39.52
2023-04-18T03:22:04.949Z,39.54
2023-04-18T03:23:06.746Z,39.55
2023-04-18T03:24:09.688Z,39.54
2023-04-18T03:25:12.151Z,39.61
2023-04-18T03:26:13.994Z,39.65
2023-04-18T03:27:17.588Z,39.71
2023-04-18T03:28:19.376Z,39.74
2023-04-18T03:29:21.180Z,39.82
2023-04-18T03:30:22.982Z,39.82
2023-04-18T03:31:24.802Z,39.86
2023-04-18T03:32:26.729Z,39.88
2023-04-18T03:33:28.496Z,39.91
2023-04-18T03:34:30.317Z,39.94
2023-04-18T03:35:32.114Z,39.92
2023-04-18T03:36:33.902Z,39.88
2023-04-18T03:37:35.742Z,39.83
2023-04-18T03:38:37.528Z,39.80
2023-04-18T03:39:39.326Z,39.83
2023-04-18T03:40:41.120Z,39.81
2023-04-18T03:41:42.976Z,39.82
2023-04-18T03:42:44.800Z,39.79
2023-04-18T03:43:46.585Z,39.83
2023-04-18T03:44:48.383Z,39.88
2023-04-18T03:45:50.244Z,39.92
2023-04-18T03:46:52.040Z,39.97
2023-04-18T03:47:53.877Z,40.02
2023-04-18T03:48:55.656Z,40.05
2023-04-18T03:49:57.439Z,40.07
2023-04-18T03:50:59.246Z,40.07
2023-04-18T03:52:01.029Z,40.08
2023-04-18T03:53:02.854Z,40.08
2023-04-18T03:54:04.651Z,40.08
2023-04-18T03:55:06.453Z,40.17
2023-04-18T03:56:08.557Z,40.17
2023-04-18T03:57:10.350Z,40.16
2023-04-18T03:58:12.197Z,40.18
2023-04-18T03:59:16.662Z,40.19
2023-04-18T04:00:18.501Z,40.22
2023-04-18T04:01:20.910Z,40.25
2023-04-18T04:02:22.800Z,40.34
2023-04-18T04:03:24.884Z,40.39
2023-04-18T04:04:26.865Z,40.42
2023-04-18T04:05:28.754Z,40.42
2023-04-18T04:06:30.558Z,40.46
2023-04-18T04:07:32.332Z,40.42
2023-04-18T04:08:34.123Z,40.37
2023-04-18T04:09:36.059Z,40.33
2023-04-18T04:10:37.859Z,40.32
2023-04-18T04:11:39.662Z,40.28
2023-04-18T04:12:41.461Z,40.23
2023-04-18T04:13:43.292Z,40.22
2023-04-18T04:14:45.195Z,40.17
2023-04-18T04:15:46.998Z,40.18
2023-04-18T04:16:48.897Z,40.11
2023-04-18T04:17:50.724Z,40.08
2023-04-18T04:18:52.607Z,40.05
2023-04-18T04:19:54.400Z,39.89
2023-04-18T04:20:56.189Z,39.74
2023-04-18T04:21:57.987Z,39.67
2023-04-18T04:22:59.794Z,39.67
2023-04-18T04:24:01.561Z,39.60
2023-04-18T04:25:03.396Z,39.63
2023-04-18T04:26:05.305Z,39.59
2023-04-18T04:27:07.105Z,39.63
2023-04-18T04:28:08.896Z,39.59
2023-04-18T04:29:10.631Z,39.60
2023-04-18T04:30:13.478Z,39.60
2023-04-18T04:31:15.451Z,39.60
2023-04-18T04:32:17.257Z,39.60
2023-04-18T04:33:19.058Z,39.62
2023-04-18T04:34:20.874Z,39.55
2023-04-18T04:35:22.715Z,39.55
2023-04-18T04:36:24.561Z,39.61
2023-04-18T04:37:26.362Z,39.56
2023-04-18T04:38:28.165Z,39.55
2023-04-18T04:39:29.994Z,39.50
2023-04-18T04:40:31.815Z,39.58
2023-04-18T04:41:33.603Z,39.63
2023-04-18T04:42:35.397Z,39.56
2023-04-18T04:43:37.198Z,39.54
2023-04-18T04:44:39.049Z,39.55
2023-04-18T04:45:40.874Z,39.52
2023-04-18T04:46:42.654Z,39.62
2023-04-18T04:47:44.476Z,39.64
2023-04-18T04:48:46.253Z,39.65
2023-04-18T04:49:48.087Z,39.69
2023-04-18T04:50:49.905Z,39.72
2023-04-18T04:51:51.698Z,39.74
2023-04-18T04:52:53.494Z,39.72
2023-04-18T04:53:55.392Z,39.68
2023-04-18T04:54:57.233Z,39.71
2023-04-18T04:55:59.049Z,39.74
2023-04-18T04:57:00.847Z,39.78
2023-04-18T04:58:02.654Z,39.79
2023-04-18T04:59:04.445Z,39.82
2023-04-18T05:00:06.567Z,39.87
2023-04-18T05:01:08.396Z,39.87
2023-04-18T05:02:10.340Z,39.93
2023-04-18T05:03:12.269Z,39.95
2023-04-18T05:04:14.538Z,40.02
2023-04-18T05:05:16.723Z,39.95
2023-04-18T05:06:18.494Z,39.89
2023-04-18T05:07:20.285Z,39.90
2023-04-18T05:08:22.087Z,39.91
2023-04-18T05:09:23.893Z,39.98
2023-04-18T05:10:26.027Z,40.08
2023-04-18T05:11:27.916Z,40.18
2023-04-18T05:12:29.730Z,40.26
2023-04-18T05:13:31.513Z,40.29
2023-04-18T05:14:33.308Z,40.29
2023-04-18T05:15:35.148Z,40.19
2023-04-18T05:16:36.976Z,40.13
2023-04-18T05:17:38.943Z,40.11
2023-04-18T05:18:40.761Z,40.03
2023-04-18T05:19:42.545Z,40.02
2023-04-18T05:20:44.410Z,39.98
2023-04-18T05:21:46.209Z,40.01
2023-04-18T05:22:48.022Z,39.98
2023-04-18T05:23:49.807Z,40.02
2023-04-18T05:24:51.622Z,39.97
2023-04-18T05:25:53.457Z,40.02
2023-04-18T05:26:55.337Z,40.12
2023-04-18T05:27:57.125Z,40.15
2023-04-18T05:28:58.919Z,40.21
2023-04-18T05:30:00.724Z,40.25
2023-04-18T05:31:02.719Z,40.33
2023-04-18T05:32:04.578Z,40.35
2023-04-18T05:33:06.432Z,40.36
2023-04-18T05:34:08.183Z,40.36
2023-04-18T05:35:09.994Z,40.36
2023-04-18T05:36:12.113Z,40.38
2023-04-18T05:37:13.944Z,40.42
2023-04-18T05:38:15.731Z,40.33
2023-04-18T05:39:17.536Z,40.33
2023-04-18T05:40:19.355Z,40.33
2023-04-18T05:41:21.172Z,40.37
2023-04-18T05:42:22.978Z,40.23
2023-04-18T05:43:24.797Z,40.14
2023-04-18T05:44:26.596Z,40.14
2023-04-18T05:45:28.407Z,40.17
2023-04-18T05:46:30.290Z,40.20
2023-04-18T05:47:32.208Z,40.18
2023-04-18T05:48:33.965Z,40.21
2023-04-18T05:49:35.769Z,40.24
2023-04-18T05:50:37.565Z,40.13
2023-04-18T05:51:39.425Z,40.08
2023-04-18T05:52:41.255Z,40.05
2023-04-18T05:53:43.056Z,40.02
2023-04-18T05:54:44.856Z,40.12
2023-04-18T05:55:46.673Z,40.14
2023-04-18T05:56:48.560Z,40.07
2023-04-18T05:57:50.368Z,40.10
2023-04-18T05:58:52.160Z,40.12
2023-04-18T05:59:53.975Z,40.19
2023-04-18T06:00:55.774Z,40.23
2023-04-18T06:01:57.686Z,40.25
2023-04-18T06:02:59.731Z,40.24
2023-04-18T06:04:01.914Z,40.14
2023-04-18T06:05:03.973Z,40.12
2023-04-18T06:06:05.938Z,40.19
2023-04-18T06:07:07.777Z,40.18
2023-04-18T06:08:09.548Z,40.16
2023-04-18T06:09:11.374Z,40.13
2023-04-18T06:10:13.268Z,40.14
2023-04-18T06:11:15.103Z,40.12
2023-04-18T06:12:16.915Z,40.04
2023-04-18T06:13:18.922Z,40.00
2023-04-18T06:14:20.729Z,40.03
2023-04-18T06:15:22.540Z,39.98
2023-04-18T06:16:24.434Z,39.87
2023-04-18T06:17:26.284Z,39.76
2023-04-18T06:18:28.148Z,39.76
2023-04-18T06:19:29.952Z,39.82
2023-04-18T06:20:31.773Z,39.90
2023-04-18T06:21:33.566Z,39.94
2023-04-18T06:22:35.427Z,39.91
2023-04-18T06:23:37.232Z,39.87
2023-04-18T06:24:39.019Z,39.93
2023-04-18T06:25:40.823Z,40.08
2023-04-18T06:26:42.631Z,40.10
2023-04-18T06:27:44.466Z,40.18
2023-04-18T06:28:46.288Z,40.18
2023-04-18T06:29:48.077Z,40.05
2023-04-18T06:30:49.878Z,39.81
2023-04-18T06:31:51.747Z,39.81
2023-04-18T06:32:53.706Z,39.82
2023-04-18T06:33:55.558Z,39.74
2023-04-18T06:34:57.349Z,39.77
2023-04-18T06:36:00.294Z,39.77
2023-04-18T06:37:02.088Z,39.85
2023-04-18T06:38:03.922Z,39.87
2023-04-18T06:39:05.759Z,39.90
2023-04-18T06:40:07.948Z,39.96
2023-04-18T06:41:09.759Z,39.92
2023-04-18T06:42:11.550Z,39.84
2023-04-18T06:43:13.406Z,39.90
2023-04-18T06:44:15.308Z,39.92
2023-04-18T06:45:17.308Z,39.91
2023-04-18T06:46:19.097Z,39.80
2023-04-18T06:47:22.692Z,39.69
2023-04-18T06:48:24.536Z,39.79
2023-04-18T06:49:26.715Z,39.80
2023-04-18T06:50:28.646Z,39.81
2023-04-18T06:51:30.438Z,39.68
2023-04-18T06:52:32.242Z,39.78
2023-04-18T06:53:34.086Z,39.84
2023-04-18T06:54:35.777Z,39.83
2023-04-18T06:55:37.569Z,39.79
2023-04-18T06:56:39.353Z,39.75
2023-04-18T06:57:41.162Z,39.86
2023-04-18T06:58:43.090Z,39.95
2023-04-18T06:59:44.925Z,40.23
2023-04-18T07:00:46.778Z,40.13
2023-04-18T07:01:48.609Z,39.80
2023-04-18T07:02:50.511Z,39.84
2023-04-18T07:03:52.461Z,39.76
2023-04-18T07:04:54.285Z,39.74
2023-04-18T07:05:56.113Z,39.56
2023-04-18T07:06:57.906Z,39.50
2023-04-18T07:07:59.681Z,39.47
2023-04-18T07:09:01.552Z,39.28
2023-04-18T07:10:03.332Z,39.18
2023-04-18T07:11:05.140Z,39.09
2023-04-18T07:12:06.929Z,39.09
2023-04-18T07:13:08.748Z,39.16
2023-04-18T07:14:10.620Z,39.26
2023-04-18T07:15:12.424Z,39.15
2023-04-18T07:16:14.247Z,39.18
2023-04-18T07:17:16.009Z,39.08
2023-04-18T07:18:30.248Z,39.15
2023-04-18T07:19:21.387Z,39.22
2023-04-18T07:20:23.190Z,38.92
2023-04-18T07:21:24.975Z,38.77
2023-04-18T07:22:26.889Z,38.80
2023-04-18T07:23:28.692Z,38.97
2023-04-18T07:24:30.529Z,38.99
2023-04-18T07:25:32.334Z,38.90
2023-04-18T07:26:34.125Z,38.80
2023-04-18T07:27:35.916Z,38.74
2023-04-18T07:28:37.721Z,38.63
2023-04-18T07:29:39.594Z,38.60
2023-04-18T07:30:41.512Z,38.45
2023-04-18T07:31:43.431Z,38.41
2023-04-18T07:32:45.258Z,38.39
2023-04-18T07:33:47.055Z,38.35
2023-04-18T07:34:48.947Z,38.24
2023-04-18T07:35:50.744Z,38.24
2023-04-18T07:36:52.541Z,38.20
2023-04-18T07:37:54.347Z,38.15
2023-04-18T07:38:56.144Z,38.10
2023-04-18T07:39:57.968Z,38.17
2023-04-18T07:40:59.785Z,38.21
2023-04-18T07:42:01.564Z,38.15
2023-04-18T07:43:03.362Z,38.13
2023-04-18T07:44:05.169Z,38.11
2023-04-18T07:45:06.888Z,38.04
2023-04-18T07:46:09.078Z,38.07
2023-04-18T07:47:10.932Z,38.06
2023-04-18T07:48:12.782Z,37.99
2023-04-18T07:49:14.771Z,37.94
2023-04-18T07:50:16.769Z,37.87
2023-04-18T07:51:18.560Z,37.87
2023-04-18T07:52:20.357Z,37.94
2023-04-18T07:53:22.166Z,38.04
2023-04-18T07:54:23.961Z,38.15
2023-04-18T07:55:25.785Z,38.16
2023-04-18T07:56:27.615Z,38.10
2023-04-18T07:57:29.412Z,38.17
2023-04-18T07:58:31.221Z,38.24
2023-04-18T07:59:33.042Z,38.24
2023-04-18T08:00:34.849Z,38.29
2023-04-18T08:01:36.687Z,38.28
2023-04-18T08:02:38.599Z,38.36
2023-04-18T08:03:40.628Z,38.40
2023-04-18T08:04:42.693Z,38.46
2023-04-18T08:05:44.639Z,38.39
2023-04-18T08:06:46.420Z,38.24
2023-04-18T08:07:48.232Z,38.26
2023-04-18T08:08:50.048Z,38.33
2023-04-18T08:09:51.863Z,38.28
2023-04-18T08:10:53.706Z,38.37
2023-04-18T08:11:55.493Z,38.43
2023-04-18T08:12:57.285Z,38.44
2023-04-18T08:13:59.079Z,38.45
2023-04-18T08:15:00.889Z,38.46
2023-04-18T08:16:02.755Z,38.60
2023-04-18T08:17:04.545Z,38.60
2023-04-18T08:18:06.373Z,38.65
2023-04-18T08:19:08.545Z,38.60
2023-04-18T08:20:11.179Z,38.57
2023-04-18T08:21:13.000Z,38.56
2023-04-18T08:22:14.799Z,38.51
2023-04-18T08:23:16.625Z,38.55
2023-04-18T08:24:18.440Z,38.58
2023-04-18T08:25:20.233Z,38.56
2023-04-18T08:26:24.336Z,38.52
2023-04-18T08:27:26.180Z,38.54
2023-04-18T08:28:27.879Z,38.50
2023-04-18T08:29:29.678Z,38.57
2023-04-18T08:30:32.478Z,38.52
2023-04-18T08:31:34.644Z,38.58
2023-04-18T08:32:36.480Z,38.61
2023-04-18T08:33:38.317Z,38.61
2023-04-18T08:34:40.111Z,38.63
2023-04-18T08:35:41.934Z,38.67
2023-04-18T08:36:43.778Z,38.57
2023-04-18T08:37:45.578Z,38.48
2023-04-18T08:38:47.363Z,38.48
2023-04-18T08:39:49.069Z,38.49
2023-04-18T08:40:50.857Z,38.41
2023-04-18T08:41:52.703Z,38.42
2023-04-18T08:42:54.512Z,38.41
2023-04-18T08:43:57.222Z,38.65
2023-04-18T08:44:59.016Z,38.56
2023-04-18T08:46:00.913Z,38.27
2023-04-18T08:47:02.764Z,38.24
2023-04-18T08:48:04.678Z,38.27
2023-04-18T08:49:06.594Z,38.26
2023-04-18T08:50:08.397Z,38.29
2023-04-18T08:51:10.246Z,38.29
2023-04-18T08:52:12.081Z,38.30
2023-04-18T08:53:13.874Z,38.23
2023-04-18T08:54:15.664Z,38.25
2023-04-18T08:55:17.359Z,38.31
2023-04-18T08:56:19.175Z,38.37
2023-04-18T08:57:21.017Z,38.38
2023-04-18T08:58:22.818Z,38.48
2023-04-18T08:59:24.619Z,38.48
2023-04-18T09:00:26.421Z,38.58
2023-04-18T09:01:28.379Z,38.69
2023-04-18T09:02:30.341Z,38.68
2023-04-18T09:03:32.371Z,38.73
2023-04-18T09:04:34.273Z,38.70
2023-04-18T09:05:36.074Z,38.77
2023-04-18T09:06:37.875Z,38.94
2023-04-18T09:07:39.707Z,38.90
2023-04-18T09:08:41.514Z,38.87
2023-04-18T09:09:43.323Z,38.98
2023-04-18T09:10:46.744Z,38.97
2023-04-18T09:11:48.625Z,38.91
2023-04-18T09:12:50.748Z,38.82
2023-04-18T09:13:52.547Z,38.67
2023-04-18T09:14:54.358Z,38.51
2023-04-18T09:15:56.174Z,38.46
2023-04-18T09:16:58.032Z,38.49
2023-04-18T09:18:00.055Z,38.49
2023-04-18T09:19:02.043Z,38.43
2023-04-18T09:20:03.890Z,38.48
2023-04-18T09:21:05.687Z,38.54
2023-04-18T09:22:07.496Z,38.50
2023-04-18T09:23:09.320Z,38.52
2023-04-18T09:24:11.296Z,38.50
2023-04-18T09:25:13.236Z,38.41
2023-04-18T09:26:15.642Z,38.42
2023-04-18T09:27:17.457Z,38.40
2023-04-18T09:28:19.298Z,38.54
2023-04-18T09:29:21.099Z,38.53
2023-04-18T09:30:23.021Z,38.53
2023-04-18T09:31:24.877Z,38.50
2023-04-18T09:32:26.757Z,38.52
2023-04-18T09:33:28.680Z,38.53
2023-04-18T09:34:30.432Z,38.52
2023-04-18T09:35:32.331Z,38.48
2023-04-18T09:36:34.165Z,38.48
2023-04-18T09:37:35.926Z,38.66
2023-04-18T09:38:37.749Z,38.77
2023-04-18T09:39:39.532Z,38.75
2023-04-18T09:40:41.339Z,38.77
2023-04-18T09:41:43.178Z,38.64
2023-04-18T09:42:44.930Z,38.56
2023-04-18T09:43:46.754Z,38.51
2023-04-18T09:44:48.541Z,38.51
2023-04-18T09:45:50.379Z,38.50
2023-04-18T09:46:52.165Z,38.61
2023-04-18T09:47:54.052Z,38.68
2023-04-18T09:48:55.894Z,38.84
2023-04-18T09:49:57.699Z,38.84
2023-04-18T09:50:59.527Z,38.83
2023-04-18T09:52:01.298Z,38.87
2023-04-18T09:53:03.121Z,38.87
2023-04-18T09:54:04.929Z,38.86
2023-04-18T09:55:06.755Z,38.94
2023-04-18T09:56:09.874Z,39.06
2023-04-18T09:57:11.689Z,39.16
2023-04-18T09:58:13.486Z,39.09
2023-04-18T09:59:15.508Z,38.95
2023-04-18T10:00:17.568Z,38.79
2023-04-18T10:01:21.123Z,38.86
2023-04-18T10:02:23.060Z,38.87
2023-04-18T10:03:25.100Z,38.79
2023-04-18T10:04:27.038Z,38.75
2023-04-18T10:05:28.928Z,38.73
2023-04-18T10:06:30.691Z,38.71
2023-04-18T10:07:32.373Z,38.73
2023-04-18T10:08:34.170Z,38.79
2023-04-18T10:09:35.995Z,38.86
2023-04-18T10:10:39.078Z,39.04
2023-04-18T10:11:41.133Z,39.05
2023-04-18T10:12:42.929Z,39.00
2023-04-18T10:13:44.746Z,39.08
2023-04-18T10:14:46.596Z,39.16
2023-04-18T10:15:50.418Z,39.23
2023-04-18T10:16:52.112Z,39.30
2023-04-18T10:18:03.530Z,39.28
2023-04-18T10:18:57.744Z,39.18
2023-04-18T10:19:59.566Z,39.09
2023-04-18T10:21:01.376Z,39.08
2023-04-18T10:22:03.169Z,39.01
2023-04-18T10:23:04.969Z,39.08
2023-04-18T10:24:06.771Z,39.03
2023-04-18T10:25:08.616Z,39.04
2023-04-18T10:26:10.450Z,39.13
2023-04-18T10:27:12.221Z,39.55
2023-04-18T10:28:14.023Z,39.33
2023-04-18T10:29:15.882Z,39.29
2023-04-18T10:30:17.707Z,39.17
2023-04-18T10:31:19.511Z,39.12
2023-04-18T10:32:21.363Z,39.14
2023-04-18T10:33:30.517Z,39.13
2023-04-18T10:34:26.778Z,39.07
2023-04-18T10:35:28.623Z,39.21
2023-04-18T10:36:30.518Z,39.27
2023-04-18T10:37:32.295Z,39.15
2023-04-18T10:38:34.093Z,39.28
2023-04-18T10:39:35.896Z,39.34
2023-04-18T10:40:37.740Z,39.36
2023-04-18T10:41:39.542Z,39.35
2023-04-18T10:42:41.386Z,39.36
2023-04-18T10:43:43.584Z,39.52
2023-04-18T10:44:45.429Z,39.23
2023-04-18T10:45:47.262Z,39.14
2023-04-18T10:46:49.083Z,39.08
2023-04-18T10:47:50.980Z,39.03
2023-04-18T10:48:52.798Z,39.09
2023-04-18T10:49:54.616Z,39.19
2023-04-18T10:50:56.436Z,39.30
2023-04-18T10:51:58.240Z,39.32
2023-04-18T10:53:00.066Z,39.21
2023-04-18T10:54:01.857Z,39.18
2023-04-18T10:55:03.697Z,39.18
2023-04-18T10:56:05.611Z,39.20
2023-04-18T10:57:07.419Z,39.31
2023-04-18T10:58:09.216Z,39.47
2023-04-18T10:59:11.005Z,39.43
2023-04-18T11:00:13.039Z,39.27
2023-04-18T11:01:14.899Z,39.20
2023-04-18T11:02:16.781Z,39.11
2023-04-18T11:03:18.626Z,39.01
2023-04-18T11:04:20.776Z,38.99
2023-04-18T11:05:22.684Z,39.03
2023-04-18T11:06:24.515Z,39.05
2023-04-18T11:07:28.408Z,38.98
2023-04-18T11:08:30.697Z,38.98
2023-04-18T11:09:32.550Z,39.11
2023-04-18T11:10:34.359Z,39.06
2023-04-18T11:11:36.202Z,39.05
2023-04-18T11:12:37.997Z,39.04
2023-04-18T11:13:39.797Z,39.05
2023-04-18T11:14:41.597Z,39.03
2023-04-18T11:15:43.412Z,39.13
2023-04-18T11:16:45.262Z,39.24
2023-04-18T11:17:47.159Z,39.09
2023-04-18T11:18:49.071Z,39.01
2023-04-18T11:19:50.884Z,38.95
2023-04-18T11:20:52.672Z,38.92
2023-04-18T11:21:54.515Z,38.95
2023-04-18T11:22:56.321Z,39.02
2023-04-18T11:23:58.117Z,39.17
2023-04-18T11:24:59.918Z,39.13
2023-04-18T11:26:01.708Z,39.17
2023-04-18T11:27:03.549Z,39.16
2023-04-18T11:28:05.433Z,39.09
2023-04-18T11:29:07.261Z,39.04
2023-04-18T11:30:09.513Z,39.24
2023-04-18T11:31:11.298Z,39.25
2023-04-18T11:32:13.204Z,39.04
2023-04-18T11:33:15.032Z,38.97
2023-04-18T11:34:16.804Z,38.97
2023-04-18T11:35:18.589Z,38.84
2023-04-18T11:36:20.497Z,38.80
2023-04-18T11:37:22.359Z,38.67
2023-04-18T11:38:24.351Z,38.66
2023-04-18T11:39:26.282Z,38.73
2023-04-18T11:40:28.059Z,38.70
2023-04-18T11:41:29.876Z,38.67
2023-04-18T11:42:31.702Z,38.64
2023-04-18T11:43:33.511Z,38.64
2023-04-18T11:44:36.216Z,38.78
2023-04-18T11:45:38.287Z,38.96
2023-04-18T11:46:40.144Z,38.95
2023-04-18T11:47:42.025Z,39.06
2023-04-18T11:48:43.800Z,39.03
2023-04-18T11:49:45.594Z,38.97
2023-04-18T11:50:47.405Z,38.98
2023-04-18T11:51:49.220Z,38.86
2023-04-18T11:52:51.039Z,38.71
2023-04-18T11:53:52.829Z,38.64
2023-04-18T11:54:54.625Z,38.67
2023-04-18T11:55:56.434Z,38.64
2023-04-18T11:56:58.348Z,38.73
2023-04-18T11:58:00.197Z,38.81
2023-04-18T11:59:01.950Z,38.86
2023-04-18T12:00:03.764Z,38.95
2023-04-18T12:01:05.551Z,38.92
2023-04-18T12:02:16.422Z,38.88
2023-04-18T12:03:13.344Z,38.87
2023-04-18T12:04:15.094Z,38.87
2023-04-18T12:05:17.338Z,38.91
2023-04-18T12:06:19.356Z,38.94
2023-04-18T12:07:21.306Z,38.95
2023-04-18T12:08:23.189Z,39.04
2023-04-18T12:09:24.990Z,39.04
2023-04-18T12:10:26.767Z,39.00
2023-04-18T12:11:28.562Z,38.98
2023-04-18T12:12:30.383Z,38.98
2023-04-18T12:13:32.214Z,38.94
2023-04-18T12:14:34.007Z,39.01
2023-04-18T12:15:35.855Z,39.07
2023-04-18T12:16:37.611Z,39.12
2023-04-18T12:17:39.499Z,39.07
2023-04-18T12:18:41.387Z,39.16
2023-04-18T12:19:43.191Z,39.10
2023-04-18T12:20:44.989Z,39.17
2023-04-18T12:21:46.854Z,39.26
2023-04-18T12:22:48.652Z,39.23
2023-04-18T12:23:50.490Z,39.33
2023-04-18T12:24:52.287Z,39.35
2023-04-18T12:25:54.109Z,39.25
2023-04-18T12:26:55.927Z,39.28
2023-04-18T12:27:57.737Z,39.43
2023-04-18T12:28:59.581Z,39.53
2023-04-18T12:30:01.418Z,39.53
2023-04-18T12:31:03.304Z,39.41
2023-04-18T12:32:05.163Z,39.41
2023-04-18T12:33:06.958Z,39.42
2023-04-18T12:34:08.785Z,39.49
2023-04-18T12:35:10.585Z,39.61
2023-04-18T12:36:12.688Z,39.61
2023-04-18T12:37:14.486Z,39.61
2023-04-18T12:38:16.385Z,39.65
2023-04-18T12:39:18.223Z,39.65
2023-04-18T12:40:20.048Z,39.59
2023-04-18T12:41:21.857Z,39.52
2023-04-18T12:42:23.645Z,39.50
2023-04-18T12:43:25.453Z,39.51
2023-04-18T12:44:27.295Z,39.63
2023-04-18T12:45:29.111Z,39.60
2023-04-18T12:46:30.945Z,39.56
2023-04-18T12:47:32.815Z,39.55
2023-04-18T12:48:34.652Z,39.60
2023-04-18T12:49:36.494Z,39.55
2023-04-18T12:50:38.286Z,39.56
2023-04-18T12:51:40.089Z,39.77
2023-04-18T12:52:41.816Z,39.71
2023-04-18T12:53:43.600Z,39.68
2023-04-18T12:54:45.460Z,39.77
2023-04-18T12:55:47.266Z,39.79
2023-04-18T12:56:49.055Z,39.79
2023-04-18T12:57:50.864Z,39.79
2023-04-18T12:58:52.672Z,39.82
2023-04-18T12:59:54.517Z,39.73
2023-04-18T13:00:56.319Z,39.68
2023-04-18T13:01:58.254Z,39.76
2023-04-18T13:03:00.266Z,39.78
2023-04-18T13:04:11.468Z,39.84
2023-04-18T13:05:05.888Z,39.87
2023-04-18T13:06:07.770Z,39.94
2023-04-18T13:07:09.570Z,39.91
2023-04-18T13:08:16.776Z,39.90
2023-04-18T13:09:15.172Z,39.94
2023-04-18T13:10:17.117Z,40.03
2023-04-18T13:11:18.944Z,40.12
2023-04-18T13:12:20.714Z,40.25
2023-04-18T13:13:22.637Z,40.16
2023-04-18T13:14:24.449Z,39.99
2023-04-18T13:15:26.344Z,39.88
2023-04-18T13:16:28.159Z,39.86
2023-04-18T13:17:30.085Z,39.85